sensor_id;sensor_type;location;lat;lon;timestamp;P1;durP1;ratioP1;P2;durP2;ratioP2
20020;SDS011;10171;42.694;23.318;2023-08-06T00:01:37;7.30;;;3.28;;
20020;SDS011;10171;42.694;23.318;2023-08-06T00:04:02;6.38;;;3.17;;
20020;SDS011;10171;42.694;23.318;2023-08-06T00:06:28;5.18;;;3.00;;
20020;SDS011;10171;42.694;23.318;2023-08-06T00:08:53;5.97;;;3.28;;
20020;SDS011;10171;42.694;23.318;2023-08-06T00:11:20;4.38;;;3.22;;
20020;SDS011;10171;42.694;23.318;2023-08-06T00:13:45;5.32;;;3.40;;
20020;SDS011;10171;42.694;23.318;2023-08-06T00:16:11;5.63;;;3.30;;
20020;SDS011;10171;42.694;23.318;2023-08-06T00:18:38;6.30;;;3.50;;
20020;SDS011;10171;42.694;23.318;2023-08-06T00:21:04;6.05;;;3.70;;
20020;SDS011;10171;42.694;23.318;2023-08-06T00:23:29;4.88;;;3.22;;
20020;SDS011;10171;42.694;23.318;2023-08-06T00:25:54;4.20;;;3.10;;
20020;SDS011;10171;42.694;23.318;2023-08-06T00:28:20;5.10;;;3.47;;
20020;SDS011;10171;42.694;23.318;2023-08-06T00:30:45;6.80;;;3.13;;
20020;SDS011;10171;42.694;23.318;2023-08-06T00:33:11;5.13;;;3.03;;
20020;SDS011;10171;42.694;23.318;2023-08-06T00:35:36;8.93;;;3.58;;
20020;SDS011;10171;42.694;23.318;2023-08-06T00:38:02;4.45;;;3.17;;
20020;SDS011;10171;42.694;23.318;2023-08-06T00:40:27;5.85;;;3.30;;
20020;SDS011;10171;42.694;23.318;2023-08-06T00:42:55;5.78;;;3.30;;
20020;SDS011;10171;42.694;23.318;2023-08-06T00:45:20;4.65;;;3.78;;
20020;SDS011;10171;42.694;23.318;2023-08-06T00:47:47;6.22;;;3.33;;
20020;SDS011;10171;42.694;23.318;2023-08-06T00:50:13;5.30;;;3.35;;
20020;SDS011;10171;42.694;23.318;2023-08-06T00:52:38;5.38;;;3.50;;
20020;SDS011;10171;42.694;23.318;2023-08-06T00:55:04;4.38;;;3.63;;
20020;SDS011;10171;42.694;23.318;2023-08-06T00:57:31;8.07;;;4.00;;
20020;SDS011;10171;42.694;23.318;2023-08-06T00:59:56;5.22;;;3.22;;
20020;SDS011;10171;42.694;23.318;2023-08-06T01:02:22;4.13;;;2.88;;
20020;SDS011;10171;42.694;23.318;2023-08-06T01:04:47;5.18;;;3.55;;
20020;SDS011;10171;42.694;23.318;2023-08-06T01:07:21;6.22;;;3.83;;
20020;SDS011;10171;42.694;23.318;2023-08-06T01:15:32;7.10;;;3.42;;
20020;SDS011;10171;42.694;23.318;2023-08-06T01:18:04;4.68;;;3.88;;
20020;SDS011;10171;42.694;23.318;2023-08-06T01:20:30;6.28;;;3.30;;
20020;SDS011;10171;42.694;23.318;2023-08-06T01:22:56;3.58;;;2.92;;
20020;SDS011;10171;42.694;23.318;2023-08-06T01:25:22;5.18;;;3.17;;
20020;SDS011;10171;42.694;23.318;2023-08-06T01:28:16;4.40;;;2.97;;
20020;SDS011;10171;42.694;23.318;2023-08-06T01:30:48;7.03;;;3.47;;
20020;SDS011;10171;42.694;23.318;2023-08-06T01:33:16;5.82;;;3.35;;
20020;SDS011;10171;42.694;23.318;2023-08-06T01:35:46;4.95;;;3.30;;
20020;SDS011;10171;42.694;23.318;2023-08-06T01:38:14;5.72;;;3.78;;
20020;SDS011;10171;42.694;23.318;2023-08-06T01:40:40;5.93;;;3.72;;
20020;SDS011;10171;42.694;23.318;2023-08-06T01:43:05;6.38;;;3.63;;
20020;SDS011;10171;42.694;23.318;2023-08-06T01:45:31;7.65;;;4.50;;
20020;SDS011;10171;42.694;23.318;2023-08-06T01:47:56;7.82;;;4.35;;
20020;SDS011;10171;42.694;23.318;2023-08-06T01:50:22;5.68;;;3.88;;
20020;SDS011;10171;42.694;23.318;2023-08-06T01:52:47;4.30;;;3.42;;
20020;SDS011;10171;42.694;23.318;2023-08-06T01:55:12;5.72;;;4.00;;
20020;SDS011;10171;42.694;23.318;2023-08-06T01:57:38;4.75;;;3.67;;
20020;SDS011;10171;42.694;23.318;2023-08-06T02:00:04;6.65;;;3.67;;
20020;SDS011;10171;42.694;23.318;2023-08-06T02:02:29;5.20;;;4.10;;
20020;SDS011;10171;42.694;23.318;2023-08-06T02:04:55;5.22;;;3.90;;
20020;SDS011;10171;42.694;23.318;2023-08-06T02:07:20;5.05;;;4.03;;
20020;SDS011;10171;42.694;23.318;2023-08-06T02:09:46;5.95;;;3.80;;
20020;SDS011;10171;42.694;23.318;2023-08-06T02:12:11;4.85;;;3.33;;
20020;SDS011;10171;42.694;23.318;2023-08-06T02:14:36;5.18;;;3.20;;
20020;SDS011;10171;42.694;23.318;2023-08-06T02:17:02;6.60;;;3.67;;
20020;SDS011;10171;42.694;23.318;2023-08-06T02:19:27;5.93;;;3.60;;
20020;SDS011;10171;42.694;23.318;2023-08-06T02:21:52;5.65;;;4.05;;
20020;SDS011;10171;42.694;23.318;2023-08-06T02:24:18;4.95;;;4.03;;
20020;SDS011;10171;42.694;23.318;2023-08-06T02:26:43;4.15;;;3.70;;
20020;SDS011;10171;42.694;23.318;2023-08-06T02:29:09;6.18;;;4.10;;
20020;SDS011;10171;42.694;23.318;2023-08-06T02:31:34;5.53;;;4.03;;
20020;SDS011;10171;42.694;23.318;2023-08-06T02:33:59;7.28;;;4.60;;
20020;SDS011;10171;42.694;23.318;2023-08-06T02:36:25;8.18;;;4.45;;
20020;SDS011;10171;42.694;23.318;2023-08-06T02:38:54;7.30;;;4.28;;
20020;SDS011;10171;42.694;23.318;2023-08-06T02:41:19;5.70;;;3.80;;
20020;SDS011;10171;42.694;23.318;2023-08-06T02:43:45;5.55;;;3.83;;
20020;SDS011;10171;42.694;23.318;2023-08-06T02:46:10;4.68;;;3.83;;
20020;SDS011;10171;42.694;23.318;2023-08-06T02:48:36;7.70;;;4.38;;
20020;SDS011;10171;42.694;23.318;2023-08-06T02:51:01;4.78;;;3.63;;
20020;SDS011;10171;42.694;23.318;2023-08-06T02:53:26;6.68;;;4.35;;
20020;SDS011;10171;42.694;23.318;2023-08-06T02:55:52;9.07;;;4.28;;
20020;SDS011;10171;42.694;23.318;2023-08-06T02:58:18;7.35;;;3.72;;
20020;SDS011;10171;42.694;23.318;2023-08-06T03:00:58;6.18;;;4.20;;
20020;SDS011;10171;42.694;23.318;2023-08-06T03:03:28;6.38;;;3.90;;
20020;SDS011;10171;42.694;23.318;2023-08-06T03:05:57;5.95;;;4.10;;
20020;SDS011;10171;42.694;23.318;2023-08-06T03:08:23;5.13;;;3.80;;
20020;SDS011;10171;42.694;23.318;2023-08-06T03:10:51;6.60;;;3.83;;
20020;SDS011;10171;42.694;23.318;2023-08-06T03:13:17;7.40;;;3.90;;
20020;SDS011;10171;42.694;23.318;2023-08-06T03:15:43;6.43;;;3.83;;
20020;SDS011;10171;42.694;23.318;2023-08-06T03:18:16;8.02;;;4.45;;
20020;SDS011;10171;42.694;23.318;2023-08-06T03:20:42;5.63;;;3.65;;
20020;SDS011;10171;42.694;23.318;2023-08-06T03:23:07;6.20;;;3.97;;
20020;SDS011;10171;42.694;23.318;2023-08-06T03:25:35;4.80;;;3.55;;
20020;SDS011;10171;42.694;23.318;2023-08-06T03:28:01;4.22;;;3.58;;
20020;SDS011;10171;42.694;23.318;2023-08-06T03:30:27;5.25;;;3.20;;
20020;SDS011;10171;42.694;23.318;2023-08-06T03:32:52;7.38;;;3.95;;
20020;SDS011;10171;42.694;23.318;2023-08-06T03:35:17;5.20;;;3.28;;
20020;SDS011;10171;42.694;23.318;2023-08-06T03:37:43;5.30;;;3.10;;
20020;SDS011;10171;42.694;23.318;2023-08-06T03:40:08;4.82;;;3.22;;
20020;SDS011;10171;42.694;23.318;2023-08-06T03:42:34;4.57;;;3.28;;
20020;SDS011;10171;42.694;23.318;2023-08-06T03:45:00;4.43;;;3.55;;
20020;SDS011;10171;42.694;23.318;2023-08-06T03:47:25;5.15;;;2.88;;
20020;SDS011;10171;42.694;23.318;2023-08-06T03:49:51;4.47;;;2.78;;
20020;SDS011;10171;42.694;23.318;2023-08-06T03:52:16;4.45;;;2.90;;
20020;SDS011;10171;42.694;23.318;2023-08-06T03:54:41;3.05;;;2.72;;
20020;SDS011;10171;42.694;23.318;2023-08-06T03:57:08;6.40;;;3.40;;
20020;SDS011;10171;42.694;23.318;2023-08-06T03:59:34;4.70;;;3.30;;
20020;SDS011;10171;42.694;23.318;2023-08-06T04:01:59;4.07;;;3.50;;
20020;SDS011;10171;42.694;23.318;2023-08-06T04:04:25;3.42;;;3.05;;
20020;SDS011;10171;42.694;23.318;2023-08-06T04:06:50;4.70;;;3.60;;
20020;SDS011;10171;42.694;23.318;2023-08-06T04:09:15;5.53;;;3.15;;
20020;SDS011;10171;42.694;23.318;2023-08-06T04:11:41;6.00;;;3.78;;
20020;SDS011;10171;42.694;23.318;2023-08-06T04:14:06;3.83;;;3.35;;
20020;SDS011;10171;42.694;23.318;2023-08-06T04:16:32;4.32;;;3.03;;
20020;SDS011;10171;42.694;23.318;2023-08-06T04:18:57;6.25;;;3.65;;
20020;SDS011;10171;42.694;23.318;2023-08-06T04:21:23;5.00;;;3.47;;
20020;SDS011;10171;42.694;23.318;2023-08-06T04:23:49;4.00;;;3.60;;
20020;SDS011;10171;42.694;23.318;2023-08-06T04:26:14;4.97;;;3.58;;
20020;SDS011;10171;42.694;23.318;2023-08-06T04:28:40;7.65;;;3.38;;
20020;SDS011;10171;42.694;23.318;2023-08-06T04:31:05;4.85;;;3.53;;
20020;SDS011;10171;42.694;23.318;2023-08-06T04:33:31;4.45;;;3.03;;
20020;SDS011;10171;42.694;23.318;2023-08-06T04:35:56;4.22;;;3.53;;
20020;SDS011;10171;42.694;23.318;2023-08-06T04:38:24;4.90;;;3.80;;
20020;SDS011;10171;42.694;23.318;2023-08-06T04:40:50;5.57;;;3.45;;
20020;SDS011;10171;42.694;23.318;2023-08-06T04:43:16;5.78;;;3.88;;
20020;SDS011;10171;42.694;23.318;2023-08-06T04:45:53;4.75;;;3.20;;
20020;SDS011;10171;42.694;23.318;2023-08-06T04:48:19;4.22;;;3.08;;
20020;SDS011;10171;42.694;23.318;2023-08-06T04:50:48;6.30;;;3.33;;
20020;SDS011;10171;42.694;23.318;2023-08-06T04:53:15;7.05;;;4.13;;
20020;SDS011;10171;42.694;23.318;2023-08-06T04:55:41;6.90;;;3.83;;
20020;SDS011;10171;42.694;23.318;2023-08-06T04:58:08;6.22;;;4.47;;
20020;SDS011;10171;42.694;23.318;2023-08-06T05:00:37;5.38;;;4.22;;
20020;SDS011;10171;42.694;23.318;2023-08-06T05:03:02;9.00;;;4.53;;
20020;SDS011;10171;42.694;23.318;2023-08-06T05:05:28;6.80;;;4.93;;
20020;SDS011;10171;42.694;23.318;2023-08-06T05:07:54;4.75;;;3.90;;
20020;SDS011;10171;42.694;23.318;2023-08-06T05:10:21;4.68;;;3.40;;
20020;SDS011;10171;42.694;23.318;2023-08-06T05:12:49;6.07;;;3.97;;
20020;SDS011;10171;42.694;23.318;2023-08-06T05:15:14;5.15;;;3.97;;
20020;SDS011;10171;42.694;23.318;2023-08-06T05:17:40;7.03;;;4.22;;
20020;SDS011;10171;42.694;23.318;2023-08-06T05:20:05;4.70;;;3.40;;
20020;SDS011;10171;42.694;23.318;2023-08-06T05:22:31;5.25;;;3.72;;
20020;SDS011;10171;42.694;23.318;2023-08-06T05:24:57;7.53;;;4.25;;
20020;SDS011;10171;42.694;23.318;2023-08-06T05:27:22;7.53;;;5.32;;
20020;SDS011;10171;42.694;23.318;2023-08-06T05:29:47;6.13;;;4.70;;
20020;SDS011;10171;42.694;23.318;2023-08-06T05:32:13;7.95;;;4.85;;
20020;SDS011;10171;42.694;23.318;2023-08-06T05:34:38;10.30;;;6.22;;
20020;SDS011;10171;42.694;23.318;2023-08-06T05:37:04;10.88;;;7.40;;
20020;SDS011;10171;42.694;23.318;2023-08-06T05:39:30;13.73;;;7.65;;
20020;SDS011;10171;42.694;23.318;2023-08-06T05:41:55;11.45;;;8.13;;
20020;SDS011;10171;42.694;23.318;2023-08-06T05:44:21;11.35;;;7.65;;
20020;SDS011;10171;42.694;23.318;2023-08-06T05:46:47;10.13;;;7.10;;
20020;SDS011;10171;42.694;23.318;2023-08-06T05:49:12;6.40;;;5.15;;
20020;SDS011;10171;42.694;23.318;2023-08-06T05:51:39;6.05;;;4.80;;
20020;SDS011;10171;42.694;23.318;2023-08-06T05:54:04;4.57;;;3.97;;
20020;SDS011;10171;42.694;23.318;2023-08-06T05:56:30;5.00;;;3.35;;
20020;SDS011;10171;42.694;23.318;2023-08-06T05:58:55;3.53;;;3.08;;
20020;SDS011;10171;42.694;23.318;2023-08-06T06:01:20;4.20;;;2.78;;
20020;SDS011;10171;42.694;23.318;2023-08-06T06:03:46;3.22;;;2.65;;
20020;SDS011;10171;42.694;23.318;2023-08-06T06:06:11;3.95;;;2.60;;
20020;SDS011;10171;42.694;23.318;2023-08-06T06:08:37;4.65;;;2.60;;
20020;SDS011;10171;42.694;23.318;2023-08-06T06:11:02;3.28;;;2.60;;
20020;SDS011;10171;42.694;23.318;2023-08-06T06:13:28;4.63;;;2.40;;
20020;SDS011;10171;42.694;23.318;2023-08-06T06:15:56;3.03;;;2.72;;
20020;SDS011;10171;42.694;23.318;2023-08-06T06:18:22;2.40;;;2.10;;
20020;SDS011;10171;42.694;23.318;2023-08-06T06:20:47;2.55;;;2.00;;
20020;SDS011;10171;42.694;23.318;2023-08-06T06:23:13;3.83;;;2.30;;
20020;SDS011;10171;42.694;23.318;2023-08-06T06:25:49;4.60;;;1.95;;
20020;SDS011;10171;42.694;23.318;2023-08-06T06:28:18;2.70;;;2.35;;
20020;SDS011;10171;42.694;23.318;2023-08-06T06:30:44;2.42;;;2.22;;
20020;SDS011;10171;42.694;23.318;2023-08-06T06:33:09;3.28;;;2.35;;
20020;SDS011;10171;42.694;23.318;2023-08-06T06:35:34;2.42;;;2.17;;
20020;SDS011;10171;42.694;23.318;2023-08-06T06:38:00;3.40;;;1.95;;
20020;SDS011;10171;42.694;23.318;2023-08-06T06:40:26;3.92;;;2.08;;
20020;SDS011;10171;42.694;23.318;2023-08-06T06:42:51;3.80;;;1.95;;
20020;SDS011;10171;42.694;23.318;2023-08-06T06:45:17;3.85;;;2.00;;
20020;SDS011;10171;42.694;23.318;2023-08-06T06:47:42;3.75;;;2.15;;
20020;SDS011;10171;42.694;23.318;2023-08-06T06:50:08;3.08;;;2.47;;
20020;SDS011;10171;42.694;23.318;2023-08-06T06:52:34;2.75;;;2.35;;
20020;SDS011;10171;42.694;23.318;2023-08-06T06:54:59;2.85;;;2.20;;
20020;SDS011;10171;42.694;23.318;2023-08-06T06:57:25;3.85;;;2.67;;
20020;SDS011;10171;42.694;23.318;2023-08-06T06:59:50;2.75;;;2.47;;
20020;SDS011;10171;42.694;23.318;2023-08-06T07:02:16;3.65;;;2.70;;
20020;SDS011;10171;42.694;23.318;2023-08-06T07:04:41;3.03;;;2.80;;
20020;SDS011;10171;42.694;23.318;2023-08-06T07:07:07;3.65;;;2.40;;
20020;SDS011;10171;42.694;23.318;2023-08-06T07:09:32;3.42;;;2.55;;
20020;SDS011;10171;42.694;23.318;2023-08-06T07:11:58;4.03;;;2.47;;
20020;SDS011;10171;42.694;23.318;2023-08-06T07:14:25;2.67;;;2.35;;
20020;SDS011;10171;42.694;23.318;2023-08-06T07:16:50;4.68;;;2.53;;
20020;SDS011;10171;42.694;23.318;2023-08-06T07:19:16;2.83;;;2.60;;
20020;SDS011;10171;42.694;23.318;2023-08-06T07:21:41;7.18;;;2.90;;
20020;SDS011;10171;42.694;23.318;2023-08-06T07:24:07;4.55;;;2.83;;
20020;SDS011;10171;42.694;23.318;2023-08-06T07:26:32;7.28;;;2.95;;
20020;SDS011;10171;42.694;23.318;2023-08-06T07:28:58;3.95;;;3.08;;
20020;SDS011;10171;42.694;23.318;2023-08-06T07:31:23;3.90;;;3.25;;
20020;SDS011;10171;42.694;23.318;2023-08-06T07:33:49;3.30;;;3.00;;
20020;SDS011;10171;42.694;23.318;2023-08-06T07:36:14;3.38;;;3.08;;
20020;SDS011;10171;42.694;23.318;2023-08-06T07:38:40;3.30;;;3.00;;
20020;SDS011;10171;42.694;23.318;2023-08-06T07:41:06;4.15;;;3.00;;
20020;SDS011;10171;42.694;23.318;2023-08-06T07:43:31;3.80;;;3.28;;
20020;SDS011;10171;42.694;23.318;2023-08-06T07:45:58;4.07;;;3.22;;
20020;SDS011;10171;42.694;23.318;2023-08-06T07:48:25;4.03;;;3.13;;
20020;SDS011;10171;42.694;23.318;2023-08-06T07:50:54;3.78;;;3.13;;
20020;SDS011;10171;42.694;23.318;2023-08-06T07:53:20;3.30;;;3.00;;
20020;SDS011;10171;42.694;23.318;2023-08-06T07:55:52;3.50;;;2.83;;
20020;SDS011;10171;42.694;23.318;2023-08-06T07:58:19;3.40;;;3.08;;
20020;SDS011;10171;42.694;23.318;2023-08-06T08:00:45;4.15;;;2.80;;
20020;SDS011;10171;42.694;23.318;2023-08-06T08:03:11;3.53;;;3.20;;
20020;SDS011;10171;42.694;23.318;2023-08-06T08:05:38;3.10;;;2.80;;
20020;SDS011;10171;42.694;23.318;2023-08-06T08:08:04;3.63;;;2.55;;
20020;SDS011;10171;42.694;23.318;2023-08-06T08:10:30;3.40;;;3.10;;
20020;SDS011;10171;42.694;23.318;2023-08-06T08:12:56;6.05;;;3.20;;
20020;SDS011;10171;42.694;23.318;2023-08-06T08:15:22;3.70;;;3.40;;
20020;SDS011;10171;42.694;23.318;2023-08-06T08:17:47;8.13;;;4.10;;
20020;SDS011;10171;42.694;23.318;2023-08-06T08:20:13;4.07;;;3.17;;
20020;SDS011;10171;42.694;23.318;2023-08-06T08:22:40;3.65;;;3.35;;
20020;SDS011;10171;42.694;23.318;2023-08-06T08:25:05;3.38;;;3.08;;
20020;SDS011;10171;42.694;23.318;2023-08-06T08:27:31;4.55;;;3.25;;
20020;SDS011;10171;42.694;23.318;2023-08-06T08:29:57;3.10;;;2.80;;
20020;SDS011;10171;42.694;23.318;2023-08-06T08:32:22;3.22;;;2.97;;
20020;SDS011;10171;42.694;23.318;2023-08-06T08:34:49;5.30;;;3.33;;
20020;SDS011;10171;42.694;23.318;2023-08-06T08:37:15;4.53;;;3.13;;
20020;SDS011;10171;42.694;23.318;2023-08-06T08:39:40;4.32;;;3.15;;
20020;SDS011;10171;42.694;23.318;2023-08-06T08:42:06;3.50;;;2.85;;
20020;SDS011;10171;42.694;23.318;2023-08-06T08:44:35;3.40;;;2.85;;
20020;SDS011;10171;42.694;23.318;2023-08-06T08:47:04;3.97;;;3.00;;
20020;SDS011;10171;42.694;23.318;2023-08-06T08:49:35;3.22;;;2.92;;
20020;SDS011;10171;42.694;23.318;2023-08-06T08:52:02;3.58;;;3.00;;
20020;SDS011;10171;42.694;23.318;2023-08-06T08:54:33;3.63;;;3.10;;
20020;SDS011;10171;42.694;23.318;2023-08-06T08:57:00;2.78;;;2.38;;
20020;SDS011;10171;42.694;23.318;2023-08-06T08:59:26;3.45;;;2.72;;
20020;SDS011;10171;42.694;23.318;2023-08-06T09:01:52;4.07;;;2.95;;
20020;SDS011;10171;42.694;23.318;2023-08-06T09:04:19;4.30;;;3.45;;
20020;SDS011;10171;42.694;23.318;2023-08-06T09:06:46;3.38;;;2.85;;
20020;SDS011;10171;42.694;23.318;2023-08-06T09:09:19;3.50;;;3.20;;
20020;SDS011;10171;42.694;23.318;2023-08-06T09:11:50;4.07;;;2.90;;
20020;SDS011;10171;42.694;23.318;2023-08-06T09:14:17;3.78;;;3.33;;
20020;SDS011;10171;42.694;23.318;2023-08-06T09:16:43;4.38;;;3.03;;
20020;SDS011;10171;42.694;23.318;2023-08-06T09:19:10;6.13;;;3.67;;
20020;SDS011;10171;42.694;23.318;2023-08-06T09:21:38;3.90;;;3.33;;
20020;SDS011;10171;42.694;23.318;2023-08-06T09:24:11;5.30;;;3.13;;
20020;SDS011;10171;42.694;23.318;2023-08-06T09:26:38;3.90;;;2.95;;
20020;SDS011;10171;42.694;23.318;2023-08-06T09:29:08;4.30;;;3.50;;
20020;SDS011;10171;42.694;23.318;2023-08-06T09:31:40;4.03;;;2.80;;
20020;SDS011;10171;42.694;23.318;2023-08-06T09:34:25;5.15;;;2.75;;
20020;SDS011;10171;42.694;23.318;2023-08-06T09:36:52;3.70;;;2.83;;
20020;SDS011;10171;42.694;23.318;2023-08-06T09:39:24;2.58;;;2.38;;
20020;SDS011;10171;42.694;23.318;2023-08-06T09:41:58;2.70;;;2.47;;
20020;SDS011;10171;42.694;23.318;2023-08-06T09:44:25;3.17;;;2.70;;
20020;SDS011;10171;42.694;23.318;2023-08-06T09:46:53;5.22;;;2.40;;
20020;SDS011;10171;42.694;23.318;2023-08-06T09:49:26;5.63;;;2.72;;
20020;SDS011;10171;42.694;23.318;2023-08-06T09:51:53;3.75;;;3.05;;
20020;SDS011;10171;42.694;23.318;2023-08-06T09:54:22;2.85;;;2.65;;
20020;SDS011;10171;42.694;23.318;2023-08-06T09:56:48;2.42;;;2.22;;
20020;SDS011;10171;42.694;23.318;2023-08-06T09:59:14;3.58;;;2.03;;
20020;SDS011;10171;42.694;23.318;2023-08-06T10:01:43;3.22;;;1.90;;
20020;SDS011;10171;42.694;23.318;2023-08-06T10:04:09;2.90;;;2.40;;
20020;SDS011;10171;42.694;23.318;2023-08-06T10:06:36;3.10;;;1.88;;
20020;SDS011;10171;42.694;23.318;2023-08-06T10:09:02;5.72;;;2.42;;
20020;SDS011;10171;42.694;23.318;2023-08-06T10:11:28;3.05;;;2.35;;
20020;SDS011;10171;42.694;23.318;2023-08-06T10:13:56;4.03;;;2.40;;
20020;SDS011;10171;42.694;23.318;2023-08-06T10:16:27;2.75;;;2.40;;
20020;SDS011;10171;42.694;23.318;2023-08-06T10:18:53;3.85;;;2.40;;
20020;SDS011;10171;42.694;23.318;2023-08-06T10:21:19;2.38;;;2.17;;
20020;SDS011;10171;42.694;23.318;2023-08-06T10:23:49;2.20;;;2.00;;
20020;SDS011;10171;42.694;23.318;2023-08-06T10:26:19;3.28;;;2.20;;
20020;SDS011;10171;42.694;23.318;2023-08-06T10:28:44;3.30;;;2.42;;
20020;SDS011;10171;42.694;23.318;2023-08-06T10:31:10;3.17;;;2.50;;
20020;SDS011;10171;42.694;23.318;2023-08-06T10:33:45;2.10;;;1.90;;
20020;SDS011;10171;42.694;23.318;2023-08-06T10:36:12;3.95;;;2.63;;
20020;SDS011;10171;42.694;23.318;2023-08-06T10:38:45;3.28;;;2.42;;
20020;SDS011;10171;42.694;23.318;2023-08-06T10:41:15;5.00;;;2.50;;
20020;SDS011;10171;42.694;23.318;2023-08-06T10:44:07;3.22;;;2.30;;
20020;SDS011;10171;42.694;23.318;2023-08-06T10:46:33;2.22;;;2.03;;
20020;SDS011;10171;42.694;23.318;2023-08-06T10:48:59;4.20;;;2.40;;
20020;SDS011;10171;42.694;23.318;2023-08-06T10:51:25;2.53;;;2.33;;
20020;SDS011;10171;42.694;23.318;2023-08-06T10:53:52;2.47;;;2.10;;
20020;SDS011;10171;42.694;23.318;2023-08-06T10:56:19;3.42;;;2.40;;
20020;SDS011;10171;42.694;23.318;2023-08-06T10:58:47;6.22;;;2.45;;
20020;SDS011;10171;42.694;23.318;2023-08-06T11:01:14;3.33;;;2.60;;
20020;SDS011;10171;42.694;23.318;2023-08-06T11:03:41;2.83;;;2.40;;
20020;SDS011;10171;42.694;23.318;2023-08-06T11:06:08;2.85;;;2.58;;
20020;SDS011;10171;42.694;23.318;2023-08-06T11:08:35;4.00;;;2.80;;
20020;SDS011;10171;42.694;23.318;2023-08-06T11:11:12;3.92;;;3.53;;
20020;SDS011;10171;42.694;23.318;2023-08-06T11:13:43;4.30;;;3.60;;
20020;SDS011;10171;42.694;23.318;2023-08-06T11:16:11;4.95;;;3.65;;
20020;SDS011;10171;42.694;23.318;2023-08-06T11:18:39;4.93;;;3.30;;
20020;SDS011;10171;42.694;23.318;2023-08-06T11:21:05;4.10;;;3.70;;
20020;SDS011;10171;42.694;23.318;2023-08-06T11:23:30;3.95;;;3.55;;
20020;SDS011;10171;42.694;23.318;2023-08-06T11:25:56;4.72;;;3.80;;
20020;SDS011;10171;42.694;23.318;2023-08-06T11:28:22;4.55;;;3.80;;
20020;SDS011;10171;42.694;23.318;2023-08-06T11:30:49;4.68;;;4.07;;
20020;SDS011;10171;42.694;23.318;2023-08-06T11:33:19;4.63;;;3.38;;
20020;SDS011;10171;42.694;23.318;2023-08-06T11:35:46;4.70;;;3.25;;
20020;SDS011;10171;42.694;23.318;2023-08-06T11:38:13;6.60;;;3.08;;
20020;SDS011;10171;42.694;23.318;2023-08-06T11:40:38;3.53;;;3.20;;
20020;SDS011;10171;42.694;23.318;2023-08-06T11:43:05;5.80;;;3.05;;
20020;SDS011;10171;42.694;23.318;2023-08-06T11:45:31;3.50;;;3.13;;
20020;SDS011;10171;42.694;23.318;2023-08-06T11:47:59;5.53;;;3.50;;
20020;SDS011;10171;42.694;23.318;2023-08-06T11:50:25;4.10;;;3.45;;
20020;SDS011;10171;42.694;23.318;2023-08-06T11:52:59;3.85;;;3.10;;
20020;SDS011;10171;42.694;23.318;2023-08-06T11:55:25;3.88;;;3.45;;
20020;SDS011;10171;42.694;23.318;2023-08-06T11:57:53;5.40;;;3.72;;
20020;SDS011;10171;42.694;23.318;2023-08-06T12:00:18;5.50;;;3.92;;
20020;SDS011;10171;42.694;23.318;2023-08-06T12:02:47;5.05;;;4.55;;
20020;SDS011;10171;42.694;23.318;2023-08-06T12:05:15;4.25;;;3.85;;
20020;SDS011;10171;42.694;23.318;2023-08-06T12:07:52;5.28;;;3.97;;
20020;SDS011;10171;42.694;23.318;2023-08-06T12:10:20;5.18;;;4.65;;
20020;SDS011;10171;42.694;23.318;2023-08-06T12:12:48;4.97;;;4.45;;
20020;SDS011;10171;42.694;23.318;2023-08-06T12:15:15;4.88;;;4.35;;
20020;SDS011;10171;42.694;23.318;2023-08-06T12:17:41;4.60;;;4.20;;
20020;SDS011;10171;42.694;23.318;2023-08-06T12:20:07;6.63;;;4.93;;
20020;SDS011;10171;42.694;23.318;2023-08-06T12:22:34;5.68;;;4.50;;
20020;SDS011;10171;42.694;23.318;2023-08-06T12:25:01;4.95;;;4.55;;
20020;SDS011;10171;42.694;23.318;2023-08-06T12:27:28;4.97;;;4.57;;
20020;SDS011;10171;42.694;23.318;2023-08-06T12:29:54;6.05;;;4.78;;
20020;SDS011;10171;42.694;23.318;2023-08-06T12:32:20;7.05;;;5.05;;
20020;SDS011;10171;42.694;23.318;2023-08-06T12:34:45;5.10;;;4.60;;
20020;SDS011;10171;42.694;23.318;2023-08-06T12:37:10;6.60;;;5.18;;
20020;SDS011;10171;42.694;23.318;2023-08-06T12:39:36;6.20;;;4.93;;
20020;SDS011;10171;42.694;23.318;2023-08-06T12:42:03;6.35;;;5.28;;
20020;SDS011;10171;42.694;23.318;2023-08-06T12:44:30;6.60;;;5.05;;
20020;SDS011;10171;42.694;23.318;2023-08-06T12:46:55;5.93;;;5.05;;
20020;SDS011;10171;42.694;23.318;2023-08-06T12:49:21;6.15;;;5.55;;
20020;SDS011;10171;42.694;23.318;2023-08-06T12:51:48;6.50;;;5.35;;
20020;SDS011;10171;42.694;23.318;2023-08-06T12:54:15;6.45;;;5.38;;
20020;SDS011;10171;42.694;23.318;2023-08-06T12:56:42;6.03;;;5.35;;
20020;SDS011;10171;42.694;23.318;2023-08-06T12:59:08;6.97;;;4.72;;
20020;SDS011;10171;42.694;23.318;2023-08-06T13:01:33;6.63;;;5.55;;
20020;SDS011;10171;42.694;23.318;2023-08-06T13:03:59;7.40;;;5.30;;
20020;SDS011;10171;42.694;23.318;2023-08-06T13:06:25;8.88;;;5.22;;
20020;SDS011;10171;42.694;23.318;2023-08-06T13:08:50;5.97;;;5.20;;
20020;SDS011;10171;42.694;23.318;2023-08-06T13:11:16;5.82;;;4.97;;
20020;SDS011;10171;42.694;23.318;2023-08-06T13:13:41;5.55;;;4.70;;
20020;SDS011;10171;42.694;23.318;2023-08-06T13:16:07;6.95;;;4.72;;
20020;SDS011;10171;42.694;23.318;2023-08-06T13:18:32;6.32;;;4.65;;
20020;SDS011;10171;42.694;23.318;2023-08-06T13:20:58;4.78;;;4.30;;
20020;SDS011;10171;42.694;23.318;2023-08-06T13:23:23;5.28;;;4.78;;
20020;SDS011;10171;42.694;23.318;2023-08-06T13:25:49;5.47;;;4.95;;
20020;SDS011;10171;42.694;23.318;2023-08-06T13:28:14;6.38;;;4.90;;
20020;SDS011;10171;42.694;23.318;2023-08-06T13:30:40;6.20;;;4.90;;
20020;SDS011;10171;42.694;23.318;2023-08-06T13:33:09;5.15;;;4.65;;
20020;SDS011;10171;42.694;23.318;2023-08-06T13:35:34;7.53;;;4.78;;
20020;SDS011;10171;42.694;23.318;2023-08-06T13:38:00;5.55;;;5.00;;
20020;SDS011;10171;42.694;23.318;2023-08-06T13:40:28;6.55;;;4.88;;
20020;SDS011;10171;42.694;23.318;2023-08-06T13:42:53;5.97;;;4.90;;
20020;SDS011;10171;42.694;23.318;2023-08-06T13:45:19;5.70;;;4.70;;
20020;SDS011;10171;42.694;23.318;2023-08-06T13:47:44;5.45;;;4.95;;
20020;SDS011;10171;42.694;23.318;2023-08-06T13:50:10;6.22;;;5.32;;
20020;SDS011;10171;42.694;23.318;2023-08-06T13:52:35;5.55;;;4.85;;
20020;SDS011;10171;42.694;23.318;2023-08-06T13:55:01;6.13;;;4.95;;
20020;SDS011;10171;42.694;23.318;2023-08-06T13:57:26;5.35;;;4.85;;
20020;SDS011;10171;42.694;23.318;2023-08-06T13:59:51;6.78;;;5.25;;
20020;SDS011;10171;42.694;23.318;2023-08-06T14:02:17;4.78;;;4.15;;
20020;SDS011;10171;42.694;23.318;2023-08-06T14:04:43;5.05;;;4.47;;
20020;SDS011;10171;42.694;23.318;2023-08-06T14:07:08;6.32;;;4.55;;
20020;SDS011;10171;42.694;23.318;2023-08-06T14:09:33;6.78;;;5.00;;
20020;SDS011;10171;42.694;23.318;2023-08-06T14:11:59;5.22;;;4.72;;
20020;SDS011;10171;42.694;23.318;2023-08-06T14:14:25;4.40;;;4.00;;
20020;SDS011;10171;42.694;23.318;2023-08-06T14:16:54;4.90;;;4.40;;
20020;SDS011;10171;42.694;23.318;2023-08-06T14:19:20;5.97;;;4.97;;
20020;SDS011;10171;42.694;23.318;2023-08-06T14:21:45;4.70;;;4.25;;
20020;SDS011;10171;42.694;23.318;2023-08-06T14:24:11;12.15;;;5.43;;
20020;SDS011;10171;42.694;23.318;2023-08-06T14:26:36;6.30;;;4.68;;
20020;SDS011;10171;42.694;23.318;2023-08-06T14:29:02;5.72;;;4.30;;
20020;SDS011;10171;42.694;23.318;2023-08-06T14:31:27;12.07;;;5.68;;
20020;SDS011;10171;42.694;23.318;2023-08-06T14:33:53;5.47;;;3.90;;
20020;SDS011;10171;42.694;23.318;2023-08-06T14:36:18;4.70;;;4.07;;